createdAt,value
2023-09-28T00:00:07.679Z,189.60
2023-09-28T00:01:07.694Z,202.00
2023-09-28T00:02:07.701Z,168.60
2023-09-28T00:03:08.013Z,204.10
2023-09-28T00:04:08.426Z,183.90
2023-09-28T00:05:07.657Z,221.00
2023-09-28T00:06:07.587Z,191.90
2023-09-28T00:07:07.578Z,183.10
2023-09-28T00:08:07.571Z,256.40
2023-09-28T00:09:07.571Z,303.60
2023-09-28T00:10:07.547Z,188.00
2023-09-28T00:11:07.645Z,268.00
2023-09-28T00:12:07.495Z,189.50
2023-09-28T00:13:07.476Z,255.70
2023-09-28T00:14:07.534Z,214.80
2023-09-28T00:15:07.528Z,195.60
2023-09-28T00:16:07.441Z,202.20
2023-09-28T00:17:07.494Z,209.20
2023-09-28T00:18:07.437Z,197.10
2023-09-28T00:19:07.468Z,191.10
2023-09-28T00:20:07.504Z,156.70
2023-09-28T00:21:07.381Z,271.90
2023-09-28T00:22:07.366Z,250.80
2023-09-28T00:23:07.417Z,278.10
2023-09-28T00:24:07.364Z,177.20
2023-09-28T00:25:07.340Z,284.40
2023-09-28T00:26:07.383Z,288.80
2023-09-28T00:27:07.345Z,287.60
2023-09-28T00:28:07.308Z,216.00
2023-09-28T00:29:07.306Z,279.10
2023-09-28T00:30:07.290Z,282.30
2023-09-28T00:31:07.318Z,269.80
2023-09-28T00:32:07.269Z,238.00
2023-09-28T00:33:07.278Z,321.50
2023-09-28T00:34:07.191Z,329.70
2023-09-28T00:35:07.265Z,281.40
2023-09-28T00:36:07.209Z,260.40
2023-09-28T00:37:07.164Z,278.50
2023-09-28T00:38:07.216Z,282.30
2023-09-28T00:39:08.107Z,286.40
2023-09-28T00:40:07.115Z,362.60
2023-09-28T00:41:07.130Z,335.20
2023-09-28T00:42:07.104Z,291.90
2023-09-28T00:43:07.060Z,254.00
2023-09-28T00:44:07.136Z,351.20
2023-09-28T00:45:07.064Z,318.30
2023-09-28T00:46:07.066Z,258.50
2023-09-28T00:47:07.088Z,278.30
2023-09-28T00:48:07.043Z,294.10
2023-09-28T00:49:06.968Z,326.70
2023-09-28T00:50:07.063Z,288.20
2023-09-28T00:51:06.997Z,288.00
2023-09-28T00:52:06.982Z,273.40
2023-09-28T00:53:06.969Z,264.40
2023-09-28T00:54:06.943Z,302.90
2023-09-28T00:55:06.911Z,274.40
2023-09-28T00:56:06.916Z,345.50
2023-09-28T00:57:06.926Z,290.90
2023-09-28T00:58:06.913Z,298.10
2023-09-28T00:59:07.045Z,308.50
2023-09-28T01:00:06.834Z,311.60
2023-09-28T01:01:06.825Z,304.60
2023-09-28T01:02:06.836Z,341.40
2023-09-28T01:03:07.574Z,301.20
2023-09-28T01:04:06.792Z,333.80
2023-09-28T01:05:06.767Z,355.10
2023-09-28T01:06:06.747Z,306.70
2023-09-28T01:07:06.788Z,282.40
2023-09-28T01:08:06.787Z,317.00
2023-09-28T01:09:06.726Z,313.50
2023-09-28T01:10:06.684Z,297.70
2023-09-28T01:11:06.748Z,290.80
2023-09-28T01:12:06.680Z,340.20
2023-09-28T01:13:06.679Z,245.50
2023-09-28T01:14:06.649Z,281.90
2023-09-28T01:15:06.621Z,314.10
2023-09-28T01:16:06.625Z,300.00
2023-09-28T01:17:06.629Z,354.80
2023-09-28T01:18:06.615Z,313.90
2023-09-28T01:19:06.601Z,314.00
2023-09-28T01:20:06.743Z,340.10
2023-09-28T01:21:06.560Z,304.00
2023-09-28T01:22:06.510Z,337.30
2023-09-28T01:23:06.564Z,289.50
2023-09-28T01:24:06.515Z,347.60
2023-09-28T01:25:06.476Z,288.80
2023-09-28T01:26:06.508Z,270.70
2023-09-28T01:27:06.514Z,269.70
2023-09-28T01:28:06.410Z,300.40
2023-09-28T01:29:06.489Z,335.80
2023-09-28T01:30:06.398Z,283.50
2023-09-28T01:31:06.498Z,294.00
2023-09-28T01:32:06.418Z,283.90
2023-09-28T01:33:06.383Z,294.00
2023-09-28T01:34:06.360Z,297.80
2023-09-28T01:35:06.347Z,256.60
2023-09-28T01:36:06.335Z,311.40
2023-09-28T01:37:06.278Z,331.30
2023-09-28T01:38:06.290Z,310.80
2023-09-28T01:39:06.309Z,332.40
2023-09-28T01:40:06.272Z,300.80
2023-09-28T01:41:06.279Z,343.90
2023-09-28T01:42:06.233Z,405.40
2023-09-28T01:43:06.229Z,341.00
2023-09-28T01:44:06.266Z,307.20
2023-09-28T01:45:06.210Z,295.30
2023-09-28T01:46:06.158Z,319.10
2023-09-28T01:47:06.193Z,332.00
2023-09-28T01:48:06.174Z,374.70
2023-09-28T01:49:06.145Z,195.10
2023-09-28T01:50:06.148Z,193.10
2023-09-28T01:51:06.146Z,220.00
2023-09-28T01:52:06.103Z,252.00
2023-09-28T01:53:06.118Z,324.40
2023-09-28T01:54:06.112Z,305.80
2023-09-28T01:55:06.049Z,278.70
2023-09-28T01:56:06.129Z,366.70
2023-09-28T01:57:06.071Z,283.40
2023-09-28T01:58:05.992Z,304.00
2023-09-28T01:59:06.016Z,268.30
2023-09-28T02:00:05.979Z,233.50
2023-09-28T02:01:05.953Z,332.70
2023-09-28T02:02:06.001Z,345.50
2023-09-28T02:03:06.138Z,313.00
2023-09-28T02:04:05.902Z,327.10
2023-09-28T02:05:05.921Z,350.00
2023-09-28T02:06:05.971Z,329.70
2023-09-28T02:07:05.868Z,260.30
2023-09-28T02:08:05.931Z,322.00
2023-09-28T02:09:05.822Z,206.20
2023-09-28T02:10:05.807Z,292.00
2023-09-28T02:11:05.814Z,227.90
2023-09-28T02:12:05.800Z,186.30
2023-09-28T02:13:05.803Z,269.00
2023-09-28T02:14:05.818Z,300.20
2023-09-28T02:15:05.763Z,241.90
2023-09-28T02:16:05.828Z,221.70
2023-09-28T02:17:05.725Z,251.50
2023-09-28T02:18:05.732Z,233.20
2023-09-28T02:19:05.678Z,275.70
2023-09-28T02:20:05.756Z,296.00
2023-09-28T02:21:05.691Z,260.60
2023-09-28T02:22:05.661Z,253.00
2023-09-28T02:23:05.714Z,304.90
2023-09-28T02:24:05.671Z,272.70
2023-09-28T02:25:05.662Z,225.20
2023-09-28T02:26:05.642Z,237.30
2023-09-28T02:27:05.595Z,278.70
2023-09-28T02:28:05.629Z,314.00
2023-09-28T02:29:05.583Z,258.20
2023-09-28T02:30:05.541Z,276.10
2023-09-28T02:31:05.592Z,248.90
2023-09-28T02:32:05.595Z,273.60
2023-09-28T02:33:05.543Z,216.10
2023-09-28T02:34:05.529Z,228.00
2023-09-28T02:35:05.500Z,182.20
2023-09-28T02:36:05.458Z,158.80
2023-09-28T02:37:05.453Z,181.10
2023-09-28T02:38:05.505Z,208.70
2023-09-28T02:39:05.497Z,244.00
2023-09-28T02:40:05.414Z,265.80
2023-09-28T02:41:05.401Z,235.50
2023-09-28T02:42:05.394Z,284.30
2023-09-28T02:43:05.370Z,300.80
2023-09-28T02:44:06.914Z,235.00
2023-09-28T02:45:05.333Z,302.70
2023-09-28T02:46:05.345Z,300.80
2023-09-28T02:47:05.326Z,202.40
2023-09-28T02:48:05.418Z,214.20
2023-09-28T02:49:05.265Z,193.80
2023-09-28T02:50:05.443Z,260.20
2023-09-28T02:51:05.268Z,225.10
2023-09-28T02:52:05.241Z,209.80
2023-09-28T02:53:05.293Z,225.50
2023-09-28T02:54:05.238Z,221.40
2023-09-28T02:55:05.211Z,270.30
2023-09-28T02:56:05.228Z,184.70
2023-09-28T02:57:05.162Z,220.00
2023-09-28T02:58:05.158Z,238.50
2023-09-28T02:59:05.193Z,216.30
2023-09-28T03:00:05.156Z,166.00
2023-09-28T03:01:05.132Z,165.80
2023-09-28T03:02:05.197Z,204.30
2023-09-28T03:03:05.203Z,288.80
2023-09-28T03:04:05.121Z,266.90
2023-09-28T03:05:05.124Z,241.70
2023-09-28T03:06:05.085Z,307.60
2023-09-28T03:07:05.079Z,239.10
2023-09-28T03:08:05.094Z,280.50
2023-09-28T03:09:05.065Z,245.30
2023-09-28T03:10:04.994Z,240.20
2023-09-28T03:11:05.000Z,284.10
2023-09-28T03:12:04.964Z,248.60
2023-09-28T03:13:04.944Z,303.80
2023-09-28T03:14:04.990Z,261.20
2023-09-28T03:15:04.911Z,284.20
2023-09-28T03:16:04.963Z,255.50
2023-09-28T03:17:04.872Z,297.40
2023-09-28T03:18:04.921Z,268.90
2023-09-28T03:19:04.852Z,283.90
2023-09-28T03:20:04.838Z,197.40
2023-09-28T03:21:04.812Z,279.00
2023-09-28T03:22:04.791Z,251.90
2023-09-28T03:23:04.773Z,233.50
2023-09-28T03:24:04.785Z,291.00
2023-09-28T03:25:05.434Z,253.00
2023-09-28T03:26:04.781Z,267.00
2023-09-28T03:27:10.647Z,199.90
2023-09-28T03:28:05.715Z,280.70
2023-09-28T03:29:04.767Z,199.70
2023-09-28T03:30:04.677Z,258.90
2023-09-28T03:31:04.675Z,220.70
2023-09-28T03:32:04.736Z,266.10
2023-09-28T03:33:04.657Z,347.10
2023-09-28T03:34:04.643Z,262.10
2023-09-28T03:35:04.631Z,281.00
2023-09-28T03:36:04.593Z,308.80
2023-09-28T03:37:04.575Z,368.50
2023-09-28T03:38:04.644Z,383.50
2023-09-28T03:39:04.561Z,415.00
2023-09-28T03:40:04.557Z,381.00
2023-09-28T03:41:04.541Z,455.00
2023-09-28T03:42:04.503Z,397.90
2023-09-28T03:43:04.513Z,440.80
2023-09-28T03:44:04.512Z,418.10
2023-09-28T03:45:04.488Z,360.70
2023-09-28T03:46:04.503Z,376.80
2023-09-28T03:47:04.464Z,400.30
2023-09-28T03:48:04.418Z,364.20
2023-09-28T03:49:04.445Z,409.00
2023-09-28T03:50:04.559Z,330.80
2023-09-28T03:51:04.390Z,379.40
2023-09-28T03:52:04.857Z,352.20
2023-09-28T03:53:04.393Z,357.80
2023-09-28T03:54:04.354Z,316.20
2023-09-28T03:55:04.355Z,291.40
2023-09-28T03:56:04.368Z,330.10
2023-09-28T03:57:04.297Z,291.90
2023-09-28T03:58:04.278Z,339.80
2023-09-28T03:59:04.312Z,329.40
2023-09-28T04:00:04.242Z,376.90
2023-09-28T04:01:04.360Z,320.20
2023-09-28T04:02:04.266Z,342.10
2023-09-28T04:03:04.359Z,346.40
2023-09-28T04:04:04.320Z,314.00
2023-09-28T04:05:04.230Z,298.70
2023-09-28T04:06:04.199Z,236.60
2023-09-28T04:07:04.170Z,319.20
2023-09-28T04:08:04.300Z,239.60
2023-09-28T04:09:04.145Z,279.30
2023-09-28T04:10:04.140Z,273.30
2023-09-28T04:11:04.115Z,328.20
2023-09-28T04:12:04.134Z,317.10
2023-09-28T04:13:04.054Z,248.60
2023-09-28T04:14:04.154Z,301.90
2023-09-28T04:15:04.062Z,188.90
2023-09-28T04:16:04.045Z,259.90
2023-09-28T04:17:04.018Z,282.40
2023-09-28T04:18:04.109Z,160.80
2023-09-28T04:19:03.957Z,257.00
2023-09-28T04:20:04.080Z,228.00
2023-09-28T04:21:03.951Z,288.70
2023-09-28T04:22:03.925Z,316.50
2023-09-28T04:23:05.209Z,291.50
2023-09-28T04:24:03.944Z,253.30
2023-09-28T04:25:03.888Z,368.10
2023-09-28T04:26:03.975Z,229.60
2023-09-28T04:27:03.844Z,268.80
2023-09-28T04:28:03.907Z,349.60
2023-09-28T04:29:03.872Z,311.10
2023-09-28T04:30:03.836Z,313.20
2023-09-28T04:31:03.856Z,377.40
2023-09-28T04:32:03.877Z,269.10
2023-09-28T04:33:03.822Z,348.70
2023-09-28T04:34:03.739Z,263.00
2023-09-28T04:35:03.812Z,347.30
2023-09-28T04:36:03.762Z,245.00
2023-09-28T04:37:03.726Z,317.90
2023-09-28T04:38:03.700Z,271.10
2023-09-28T04:39:03.729Z,219.30
2023-09-28T04:40:03.733Z,292.80
2023-09-28T04:41:03.645Z,295.20
2023-09-28T04:42:03.708Z,261.80
2023-09-28T04:43:03.645Z,299.70
2023-09-28T04:44:03.623Z,278.30
2023-09-28T04:45:03.590Z,300.00
2023-09-28T04:46:03.625Z,307.50
2023-09-28T04:47:03.661Z,282.80
2023-09-28T04:48:03.616Z,357.60
2023-09-28T04:49:03.599Z,247.90
2023-09-28T04:50:03.675Z,237.60
2023-09-28T04:51:03.516Z,232.20
2023-09-28T04:52:03.515Z,195.00
2023-09-28T04:53:03.617Z,234.40
2023-09-28T04:54:03.656Z,306.80
2023-09-28T04:55:04.576Z,232.70
2023-09-28T04:56:03.613Z,173.30
2023-09-28T04:57:03.470Z,238.90
2023-09-28T04:58:03.435Z,254.40
2023-09-28T04:59:03.727Z,214.20
2023-09-28T05:00:03.518Z,319.40
2023-09-28T05:01:03.438Z,300.20
2023-09-28T05:02:03.451Z,284.80
2023-09-28T05:03:03.554Z,296.60
2023-09-28T05:04:03.393Z,281.20
2023-09-28T05:05:03.487Z,273.60
2023-09-28T05:06:03.304Z,295.20
2023-09-28T05:07:03.299Z,259.40
2023-09-28T05:08:03.361Z,274.10
2023-09-28T05:09:03.320Z,218.80
2023-09-28T05:10:03.302Z,271.40
2023-09-28T05:11:03.327Z,385.60
2023-09-28T05:12:05.427Z,358.90
2023-09-28T05:13:03.257Z,314.50
2023-09-28T05:14:03.346Z,377.10
2023-09-28T05:15:03.299Z,399.50
2023-09-28T05:16:03.257Z,494.80
2023-09-28T05:17:03.216Z,404.40
2023-09-28T05:18:03.376Z,373.30
2023-09-28T05:19:03.184Z,346.80
2023-09-28T05:20:03.165Z,354.00
2023-09-28T05:21:03.122Z,459.30
2023-09-28T05:22:03.179Z,424.20
2023-09-28T05:23:03.165Z,437.90
2023-09-28T05:24:03.073Z,370.30
2023-09-28T05:25:03.060Z,421.10
2023-09-28T05:26:03.096Z,341.60
2023-09-28T05:27:03.022Z,343.70
2023-09-28T05:28:03.017Z,317.00
2023-09-28T05:29:03.038Z,351.50
2023-09-28T05:30:02.987Z,280.00
2023-09-28T05:31:03.040Z,334.10
2023-09-28T05:32:02.996Z,305.30
2023-09-28T05:33:02.979Z,329.90
2023-09-28T05:34:02.912Z,363.30
2023-09-28T05:35:02.943Z,331.10
2023-09-28T05:36:02.945Z,300.90
2023-09-28T05:37:02.902Z,297.40
2023-09-28T05:38:02.909Z,305.90
2023-09-28T05:39:02.887Z,271.10
2023-09-28T05:40:02.867Z,309.80
2023-09-28T05:41:02.850Z,197.10
2023-09-28T05:42:02.796Z,321.80
2023-09-28T05:43:02.781Z,241.30
2023-09-28T05:44:02.775Z,324.10
2023-09-28T05:45:02.767Z,355.90
2023-09-28T05:46:02.818Z,265.90
2023-09-28T05:47:02.761Z,311.40
2023-09-28T05:48:02.765Z,365.60
2023-09-28T05:49:02.758Z,318.40
2023-09-28T05:50:02.701Z,302.60
2023-09-28T05:51:02.672Z,311.20
2023-09-28T05:52:03.581Z,291.30
2023-09-28T05:53:02.732Z,338.90
2023-09-28T05:54:02.659Z,286.10
2023-09-28T05:55:02.732Z,321.10
2023-09-28T05:56:02.656Z,175.10
2023-09-28T05:57:02.588Z,338.30
2023-09-28T05:58:02.613Z,267.70
2023-09-28T05:59:02.571Z,252.80
2023-09-28T06:00:02.559Z,197.60
2023-09-28T06:01:02.638Z,192.10
2023-09-28T06:02:02.616Z,201.80
2023-09-28T06:03:02.578Z,210.50
2023-09-28T06:04:02.597Z,332.20
2023-09-28T06:05:02.529Z,311.60
2023-09-28T06:06:02.479Z,242.40
2023-09-28T06:07:02.491Z,322.20
2023-09-28T06:08:02.529Z,301.30
2023-09-28T06:09:02.468Z,248.10
2023-09-28T06:10:02.431Z,256.70
2023-09-28T06:11:11.902Z,289.50
2023-09-28T06:12:03.449Z,232.00
2023-09-28T06:13:02.368Z,301.80
2023-09-28T06:15:02.311Z,256.30
2023-09-28T06:16:02.327Z,277.60
2023-09-28T06:17:02.334Z,316.90
2023-09-28T06:18:02.341Z,170.70
2023-09-28T06:19:02.262Z,234.20
2023-09-28T06:20:02.409Z,302.70
2023-09-28T06:21:02.245Z,166.10
2023-09-28T06:22:02.230Z,210.70
2023-09-28T06:23:02.286Z,225.00
2023-09-28T06:24:02.236Z,218.20
2023-09-28T06:25:02.195Z,199.00
2023-09-28T06:26:02.200Z,161.00
2023-09-28T06:27:02.231Z,155.20
2023-09-28T06:28:02.215Z,206.20
2023-09-28T06:29:02.200Z,186.00
2023-09-28T06:30:02.123Z,218.20
2023-09-28T06:31:02.218Z,248.50
2023-09-28T06:32:02.102Z,248.10
2023-09-28T06:33:02.168Z,240.10
2023-09-28T06:34:02.279Z,237.70
2023-09-28T06:35:02.072Z,195.00
2023-09-28T06:36:02.077Z,227.20
2023-09-28T06:37:02.074Z,274.00
2023-09-28T06:38:02.052Z,256.30
2023-09-28T06:39:02.042Z,263.30
2023-09-28T06:40:01.995Z,245.60
2023-09-28T06:41:02.050Z,266.10
2023-09-28T06:42:20.188Z,267.50
2023-09-28T06:43:02.957Z,243.30
2023-09-28T06:44:01.961Z,236.40
2023-09-28T06:45:01.943Z,137.80
2023-09-28T06:46:01.924Z,177.00
2023-09-28T06:47:01.917Z,177.00
2023-09-28T06:48:18.601Z,160.00
2023-09-28T06:49:02.959Z,147.90
2023-09-28T06:50:01.933Z,193.90
2023-09-28T06:51:01.854Z,219.70
2023-09-28T06:52:01.856Z,162.80
2023-09-28T06:53:01.838Z,131.90
2023-09-28T06:54:01.835Z,186.20
2023-09-28T06:55:01.815Z,100.50
2023-09-28T06:56:13.412Z,125.20
2023-09-28T06:57:02.777Z,125.40
2023-09-28T06:58:01.739Z,150.30
2023-09-28T06:59:01.784Z,186.60
2023-09-28T07:00:01.703Z,94.20
2023-09-28T07:01:01.726Z,106.60
2023-09-28T07:02:01.783Z,147.50
2023-09-28T07:03:01.684Z,121.20
2023-09-28T07:04:01.681Z,187.20
2023-09-28T07:05:01.680Z,171.10
2023-09-28T07:06:01.662Z,211.40
2023-09-28T07:07:01.598Z,180.70
2023-09-28T07:08:01.676Z,165.70
2023-09-28T07:09:01.599Z,165.60
2023-09-28T07:10:01.561Z,215.70
2023-09-28T07:11:01.591Z,191.50
2023-09-28T07:12:01.561Z,185.40
2023-09-28T07:13:01.542Z,145.00
2023-09-28T07:14:01.521Z,102.40
2023-09-28T07:15:01.506Z,128.40
2023-09-28T07:16:01.507Z,116.80
2023-09-28T07:17:01.590Z,138.30
2023-09-28T07:18:01.496Z,177.30
2023-09-28T07:19:01.478Z,163.70
2023-09-28T07:20:01.502Z,119.50
2023-09-28T07:21:01.409Z,140.60
2023-09-28T07:22:01.407Z,146.10
2023-09-28T07:23:01.403Z,168.40
2023-09-28T07:24:16.283Z,220.50
2023-09-28T07:25:02.436Z,229.70
2023-09-28T07:26:01.340Z,147.40
2023-09-28T07:27:01.333Z,127.10
2023-09-28T07:28:01.319Z,235.30
2023-09-28T07:29:01.460Z,112.50
2023-09-28T07:30:01.309Z,309.00
2023-09-28T07:31:01.318Z,75.80
2023-09-28T07:32:01.409Z,204.00
2023-09-28T07:33:01.315Z,267.50
2023-09-28T07:34:01.248Z,128.40
2023-09-28T07:35:01.314Z,126.10
2023-09-28T07:36:01.266Z,163.50
2023-09-28T07:37:01.185Z,179.80
2023-09-28T07:38:01.146Z,177.70
2023-09-28T07:39:01.194Z,148.10
2023-09-28T07:40:01.166Z,103.50
2023-09-28T07:41:01.129Z,205.10
2023-09-28T07:42:01.099Z,167.80
2023-09-28T07:43:01.072Z,303.40
2023-09-28T07:44:01.077Z,214.20
2023-09-28T07:45:01.079Z,156.10
2023-09-28T07:46:01.078Z,200.10
2023-09-28T07:47:01.085Z,185.50
2023-09-28T07:48:01.039Z,198.40
2023-09-28T07:49:00.996Z,223.50
2023-09-28T07:50:01.002Z,222.20
2023-09-28T07:51:01.022Z,172.60
2023-09-28T07:52:01.084Z,266.90
2023-09-28T07:53:00.976Z,188.90
2023-09-28T07:54:01.116Z,191.40
2023-09-28T07:55:00.880Z,187.60
2023-09-28T07:56:00.908Z,173.90
2023-09-28T07:57:00.894Z,334.40
2023-09-28T07:58:19.125Z,218.70
2023-09-28T07:59:01.875Z,135.70
2023-09-28T08:00:00.835Z,193.10
2023-09-28T08:01:00.835Z,168.90
2023-09-28T08:02:00.885Z,166.80
2023-09-28T08:03:00.795Z,139.00
2023-09-28T08:04:00.816Z,112.40
2023-09-28T08:05:00.931Z,188.50
2023-09-28T08:06:00.723Z,200.10
2023-09-28T08:07:00.712Z,134.20
2023-09-28T08:08:11.653Z,156.90
2023-09-28T08:09:03.331Z,135.80
2023-09-28T08:10:00.656Z,144.10
2023-09-28T08:11:00.761Z,155.60
2023-09-28T08:12:02.564Z,226.60
2023-09-28T08:13:00.642Z,157.00
2023-09-28T08:14:00.638Z,156.20
2023-09-28T08:15:00.654Z,141.90
2023-09-28T08:16:00.638Z,130.10
2023-09-28T08:17:00.610Z,175.40
2023-09-28T08:18:00.649Z,192.30
2023-09-28T08:19:00.582Z,158.70
2023-09-28T08:20:00.574Z,214.10
2023-09-28T08:21:10.245Z,176.40
2023-09-28T08:22:01.540Z,155.70
2023-09-28T08:23:00.558Z,173.10
2023-09-28T08:24:00.578Z,218.50
2023-09-28T08:25:00.489Z,214.50
2023-09-28T08:26:00.568Z,140.20
2023-09-28T08:27:00.504Z,171.00
2023-09-28T08:28:00.720Z,195.90
2023-09-28T08:29:00.485Z,171.40
2023-09-28T08:30:00.443Z,142.00
2023-09-28T08:31:00.543Z,166.70
2023-09-28T08:32:00.438Z,241.10
2023-09-28T08:34:00.374Z,245.60
2023-09-28T08:35:00.339Z,266.30
2023-09-28T08:36:00.305Z,170.20
2023-09-28T08:37:00.344Z,161.30
2023-09-28T08:38:00.275Z,245.40
2023-09-28T08:39:00.310Z,226.40
2023-09-28T08:40:00.270Z,175.20
2023-09-28T08:41:00.332Z,194.20
2023-09-28T08:42:00.238Z,155.10
2023-09-28T08:43:00.217Z,196.50
2023-09-28T08:44:00.249Z,146.20
2023-09-28T08:45:00.162Z,161.80
2023-09-28T08:46:00.230Z,145.80
2023-09-28T08:47:00.296Z,125.50
2023-09-28T08:48:00.258Z,187.80
2023-09-28T08:49:00.158Z,183.40
2023-09-28T08:50:00.271Z,126.20
2023-09-28T08:51:00.221Z,160.30
2023-09-28T08:52:00.081Z,186.00
2023-09-28T08:53:00.085Z,112.30
2023-09-28T08:54:00.062Z,126.00
2023-09-28T08:55:00.048Z,170.20
2023-09-28T08:56:00.662Z,187.20
2023-09-28T08:57:00.071Z,153.10
2023-09-28T08:57:59.999Z,245.30
2023-09-28T08:59:00.020Z,210.80
2023-09-28T08:59:59.975Z,209.50
2023-09-28T09:01:00.056Z,260.00
2023-09-28T09:02:00.066Z,281.90
2023-09-28T09:02:59.973Z,243.00
2023-09-28T09:03:59.938Z,202.40
2023-09-28T09:05:00.016Z,163.30
2023-09-28T09:06:00.017Z,177.90
2023-09-28T09:06:59.860Z,238.20
2023-09-28T09:07:59.914Z,223.80
2023-09-28T09:08:59.861Z,148.30
2023-09-28T09:09:59.849Z,186.70
2023-09-28T09:10:59.830Z,149.10
2023-09-28T09:11:59.850Z,159.80
2023-09-28T09:12:59.863Z,255.80
2023-09-28T09:13:59.792Z,211.70
2023-09-28T09:14:59.757Z,211.40
2023-09-28T09:15:59.798Z,219.70
2023-09-28T09:16:59.930Z,174.20
2023-09-28T09:18:00.062Z,261.80
2023-09-28T09:18:59.761Z,266.60
2023-09-28T09:19:59.906Z,233.30
2023-09-28T09:20:59.688Z,174.70
2023-09-28T09:21:59.670Z,200.10
2023-09-28T09:23:01.729Z,202.30
2023-09-28T09:23:59.657Z,188.50
2023-09-28T09:24:59.829Z,193.00
2023-09-28T09:25:59.650Z,203.00
2023-09-28T09:26:59.601Z,195.10
2023-09-28T09:27:59.646Z,122.80
2023-09-28T09:28:59.611Z,104.30
2023-09-28T09:29:59.568Z,61.70
2023-09-28T09:30:59.610Z,53.90
2023-09-28T09:31:59.591Z,36.30
2023-09-28T09:32:59.523Z,53.00
2023-09-28T09:33:59.505Z,39.90
2023-09-28T09:34:59.516Z,25.30
2023-09-28T09:35:59.588Z,49.00
2023-09-28T09:36:59.494Z,33.80
2023-09-28T09:37:59.469Z,37.00
2023-09-28T09:38:59.422Z,22.40
2023-09-28T09:39:59.424Z,34.70
2023-09-28T09:40:59.430Z,30.50
2023-09-28T09:41:59.402Z,19.40
2023-09-28T09:42:59.375Z,25.60
2023-09-28T09:43:59.353Z,28.90
2023-09-28T09:44:59.334Z,25.10
2023-09-28T09:45:59.362Z,32.10
2023-09-28T09:46:59.397Z,20.60
2023-09-28T09:47:59.470Z,31.30
2023-09-28T09:48:59.283Z,22.70
2023-09-28T09:49:59.387Z,30.30
2023-09-28T09:50:59.267Z,45.70
2023-09-28T09:51:59.250Z,24.60
2023-09-28T09:52:59.250Z,18.50
2023-09-28T09:53:59.246Z,23.20
2023-09-28T09:54:59.179Z,24.20
2023-09-28T09:56:00.324Z,25.10
2023-09-28T09:56:59.199Z,21.00
2023-09-28T09:57:59.189Z,30.40
2023-09-28T09:58:59.162Z,37.20
2023-09-28T10:00:00.416Z,24.10
2023-09-28T10:00:59.159Z,35.20
2023-09-28T10:01:59.112Z,26.10
2023-09-28T10:02:59.103Z,27.20
2023-09-28T10:04:01.521Z,34.20
2023-09-28T10:04:59.115Z,32.80
2023-09-28T10:05:59.087Z,29.80
2023-09-28T10:06:59.040Z,11.70
2023-09-28T10:07:59.084Z,77.60
2023-09-28T10:08:58.985Z,43.20
2023-09-28T10:09:59.042Z,23.20
2023-09-28T10:10:59.049Z,25.00
2023-09-28T10:11:58.954Z,24.80
2023-09-28T10:12:58.941Z,57.50
2023-09-28T10:13:58.985Z,25.30
2023-09-28T10:14:58.938Z,33.80
2023-09-28T10:15:58.913Z,27.50
2023-09-28T10:16:59.016Z,35.30
2023-09-28T10:17:58.998Z,42.90
2023-09-28T10:18:59.054Z,29.30
2023-09-28T10:19:58.894Z,33.30
2023-09-28T10:20:58.838Z,25.50
2023-09-28T10:21:59.000Z,26.90
2023-09-28T10:22:58.869Z,43.90
2023-09-28T10:23:58.933Z,36.50
2023-09-28T10:24:58.790Z,31.30
2023-09-28T10:25:58.848Z,29.80
2023-09-28T10:26:58.793Z,27.80
2023-09-28T10:27:58.718Z,18.30
2023-09-28T10:28:58.730Z,24.10
2023-09-28T10:29:58.704Z,33.50
2023-09-28T10:30:58.767Z,26.70
2023-09-28T10:31:59.251Z,30.80
2023-09-28T10:32:58.962Z,34.50
2023-09-28T10:33:58.650Z,30.40
2023-09-28T10:34:58.683Z,41.60
2023-09-28T10:35:58.636Z,23.80
2023-09-28T10:36:58.594Z,20.00
2023-09-28T10:37:58.593Z,35.90
2023-09-28T10:38:58.591Z,23.80
2023-09-28T10:39:58.759Z,13.20
2023-09-28T10:40:58.587Z,27.30
2023-09-28T10:41:58.520Z,52.40
2023-09-28T10:42:58.531Z,39.80
2023-09-28T10:43:58.564Z,27.50
2023-09-28T10:44:58.572Z,25.60
2023-09-28T10:45:58.506Z,33.60
2023-09-28T10:46:58.501Z,23.70
2023-09-28T10:47:58.510Z,28.50
2023-09-28T10:48:58.828Z,17.30
2023-09-28T10:49:58.450Z,28.30
2023-09-28T10:50:58.413Z,28.10
2023-09-28T10:51:58.389Z,22.10
2023-09-28T10:52:58.388Z,33.20
2023-09-28T10:53:58.367Z,17.60
2023-09-28T10:54:58.393Z,14.80
2023-09-28T10:55:58.360Z,36.70
2023-09-28T10:56:58.328Z,23.30
2023-09-28T10:57:58.299Z,28.40
2023-09-28T10:58:58.341Z,28.30
2023-09-28T10:59:58.303Z,26.70
2023-09-28T11:00:58.249Z,21.40
2023-09-28T11:01:58.376Z,20.30
2023-09-28T11:02:58.410Z,20.80
2023-09-28T11:03:58.530Z,15.30
2023-09-28T11:04:58.302Z,10.60
2023-09-28T11:05:58.417Z,24.70
2023-09-28T11:06:58.366Z,17.50
2023-09-28T11:07:58.196Z,18.40
2023-09-28T11:08:58.172Z,21.00
2023-09-28T11:09:58.144Z,22.70
2023-09-28T11:10:58.151Z,15.60
2023-09-28T11:11:58.124Z,17.80
2023-09-28T11:12:58.078Z,13.70
2023-09-28T11:13:58.141Z,28.10
2023-09-28T11:14:58.083Z,16.60
2023-09-28T11:15:58.101Z,13.80
2023-09-28T11:16:58.057Z,7.20
2023-09-28T11:17:58.089Z,11.40
2023-09-28T11:18:58.028Z,12.20
2023-09-28T11:19:58.041Z,11.80
2023-09-28T11:20:58.028Z,10.40
2023-09-28T11:21:57.959Z,5.40
2023-09-28T11:22:58.033Z,10.90
2023-09-28T11:23:57.956Z,6.30
2023-09-28T11:24:57.930Z,6.20
2023-09-28T11:25:57.953Z,6.70
2023-09-28T11:26:57.905Z,6.50
2023-09-28T11:27:57.911Z,5.40
2023-09-28T11:28:57.922Z,4.90
2023-09-28T11:29:57.898Z,4.90
2023-09-28T11:30:57.920Z,6.40
2023-09-28T11:31:57.855Z,7.60
2023-09-28T11:32:57.842Z,5.70
2023-09-28T11:33:57.827Z,4.10
2023-09-28T11:34:57.811Z,5.60
2023-09-28T11:35:57.815Z,4.00
2023-09-28T11:36:57.756Z,5.40
2023-09-28T11:37:57.774Z,5.10
2023-09-28T11:38:57.747Z,3.80
2023-09-28T11:39:57.733Z,5.10
2023-09-28T11:40:57.744Z,3.80
2023-09-28T11:41:57.811Z,4.00
2023-09-28T11:42:57.693Z,3.80
2023-09-28T11:43:58.081Z,4.30
2023-09-28T11:44:57.692Z,5.20
2023-09-28T11:45:57.761Z,4.60
2023-09-28T11:46:58.030Z,5.00
2023-09-28T11:47:57.661Z,5.40
2023-09-28T11:48:57.648Z,4.00
2023-09-28T11:49:57.596Z,4.70
2023-09-28T11:50:57.610Z,5.20
2023-09-28T11:51:57.620Z,4.40
2023-09-28T11:52:57.629Z,3.90
2023-09-28T11:53:57.635Z,4.70
2023-09-28T11:54:57.550Z,6.60
2023-09-28T11:55:57.542Z,4.60
2023-09-28T11:56:57.522Z,4.90
2023-09-28T11:57:57.529Z,4.20
2023-09-28T11:58:57.489Z,4.50
2023-09-28T11:59:57.478Z,4.70
2023-09-28T12:00:57.475Z,3.80
2023-09-28T12:01:57.448Z,6.40
2023-09-28T12:02:57.672Z,5.30
2023-09-28T12:03:57.599Z,4.80
2023-09-28T12:04:57.473Z,5.30
2023-09-28T12:05:57.407Z,5.00
2023-09-28T12:06:57.360Z,7.10
2023-09-28T12:07:57.359Z,4.50
2023-09-28T12:08:57.341Z,4.80
2023-09-28T12:10:04.684Z,5.60
2023-09-28T12:10:58.424Z,4.80
2023-09-28T12:11:57.559Z,5.10
2023-09-28T12:12:57.317Z,4.80
2023-09-28T12:13:57.706Z,5.00
2023-09-28T12:14:57.359Z,5.30
2023-09-28T12:15:57.239Z,4.80
2023-09-28T12:16:57.265Z,4.70
2023-09-28T12:17:57.273Z,4.50
2023-09-28T12:18:57.312Z,4.90
2023-09-28T12:19:57.222Z,5.70
2023-09-28T12:20:57.183Z,6.50
2023-09-28T12:21:57.195Z,4.10
2023-09-28T12:22:57.152Z,4.70
2023-09-28T12:23:57.494Z,4.30
2023-09-28T12:24:57.206Z,4.90
2023-09-28T12:25:57.127Z,5.70
2023-09-28T12:26:57.115Z,4.50
2023-09-28T12:27:57.117Z,5.50
2023-09-28T12:28:57.090Z,7.90
2023-09-28T12:29:57.076Z,6.10
2023-09-28T12:30:57.109Z,9.30
2023-09-28T12:31:57.033Z,7.00
2023-09-28T12:32:57.035Z,6.80
2023-09-28T12:33:57.012Z,5.90
2023-09-28T12:34:57.022Z,7.60
2023-09-28T12:35:56.995Z,6.00
2023-09-28T12:36:56.974Z,5.40
2023-09-28T12:37:57.031Z,7.40